Boryspil International Airport

UKBB · Kyiv, Ukraine

METAR history UKBB · Boryspil International Airport

Below you see METARs of the last few days. Select a year to browse through older METARs, from the year 2007 onwards.

April 19, 2024

Time Code Weather Temp. Visibility Ceiling Wind METAR/SPECI
22:00
V
6 °C 10 km+ 8,000 ft 250° 250° 9 kt METAR UMGG 191900Z 25005MPS 9999 SCT019CB BKN080 06/03 Q1007 NOSIG
21:30
V
6 °C 10 km+ 8,000 ft 230° 230° 9 kt METAR UMGG 191830Z 23005MPS 9999 SCT026CB BKN080 06/03 Q1008 TEMPO 3000 -SHRA
21:00
V
6 °C 10 km+ 8,000 ft 230° 230° 9 kt METAR UMGG 191800Z 23005MPS 9999 SCT029CB BKN080 06/03 Q1007 TEMPO 3000 -SHRA
20:30
V
7 °C 10 km+ 8,000 ft 240° 240° 11 kt METAR UMGG 191730Z 24006MPS 9999 SCT049CB BKN080 07/02 Q1006 TEMPO 3000 -SHRA
20:00
V
7 °C 10 km+ 8,000 ft 250° 250° 11 kt METAR UMGG 191700Z 25006MPS 9999 SCT031CB BKN080 07/02 Q1006 NOSIG
19:30
V
8 °C 10 km+ 10,000 ft 250° 250° 9 - 15 kt METAR UMGG 191630Z 25005G08MPS 9999 SCT032CB BKN100 08/02 Q1006 NOSIG
19:00
V
8 °C 10 km+ 10,000 ft 240° 240° 13 - 19 kt METAR UMGG 191600Z 24007G10MPS 9999 SCT040CB BKN100 08/02 Q1005 NOSIG
18:30
V
8 °C 10 km+ 10,000 ft 250° 250° 17 - 25 kt METAR UMGG 191530Z 25009G13MPS 9999 SCT027CB BKN100 08/04 Q1005 NOSIG
18:00
M
8 °C 10 km+ 2,300 ft 250° 250° 19 - 27 kt METAR UMGG 191500Z 25010G14MPS 9999 BKN023CB BKN100 08/04 Q1004 NOSIG
17:30
V
9 °C 10 km+ 10,000 ft 270° 270° 19 - 29 kt METAR UMGG 191430Z 27010G15MPS 9999 SCT025CB BKN100 09/04 Q1004 NOSIG
17:00
V
9 °C 10 km+ 10,000 ft 250° 250° 19 - 29 kt METAR UMGG 191400Z 25010G15MPS 9999 SCT024CB BKN100 09/04 Q1003 NOSIG
16:30
V
6 °C 10 km+ 10,000 ft 260° 260° 19 - 29 kt METAR UMGG 191330Z 26010G15MPS 9999 SCT036CB BKN100 06/04 Q1003 NOSIG
16:00
M
6 °C 10 km+ 2,000 ft 250° 250° 19 - 29 kt METAR UMGG 191300Z 25010G15MPS 9999 BKN020CB BKN100 06/04 Q1003 NOSIG
15:30
M
6 °C 10 km+ 1,900 ft 260° 260° 19 - 29 kt METAR UMGG 191230Z 26010G15MPS 9999 OVC019CB 06/04 Q1002 NOSIG
15:00
M
6 °C 10 km+ 1,700 ft 260° 260° 19 - 29 kt METAR UMGG 191200Z 26010G15MPS 9999 -SHRA OVC017CB 06/04 Q1002 NOSIG
14:30
M
6 °C 10 km+ 1,500 ft 260° 260° 19 - 29 kt METAR UMGG 191130Z 26010G15MPS 9999 -SHRA OVC015CB 06/03 Q1001 NOSIG
14:00
M
6 °C 10 km+ 2,200 ft 260° 260° 21 - 31 kt METAR UMGG 191100Z 26011G16MPS 9999 -SHRA OVC022CB 06/03 Q1000 NOSIG
13:30
M
5 °C 10 km+ 2,800 ft 260° 260° 21 - 31 kt METAR UMGG 191030Z 26011G16MPS 9999 SCT013 OVC028CB 05/03 Q0999 NOSIG
13:00
M
5 °C 10 km+ 2,500 ft 260° 260° 21 - 31 kt METAR UMGG 191000Z 26011G16MPS 9999 -SHRA SCT013 OVC025CB 05/03 Q0999 NOSIG
12:30
M
5 °C 10 km+ 2,800 ft 270° 270° 21 - 31 kt METAR UMGG 190930Z 27011G16MPS 9999 -SHRA SCT012 OVC028CB 05/03 Q0998 NOSIG
12:00
V
5 °C 10 km+ 3,600 ft 270° 270° 21 - 31 kt METAR UMGG 190900Z 27011G16MPS 9999 -SHRA SCT013 OVC036CB 05/03 Q0997 NOSIG
11:30
M
4 °C 10 km+ 2,300 ft 260° 260° 19 - 29 kt METAR UMGG 190830Z 26010G15MPS 9999 -SHRA SCT012 OVC023CB 04/02 Q0997 NOSIG
11:00
M
4 °C 8 km 2,200 ft 270° 270° 19 - 27 kt METAR UMGG 190800Z 27010G14MPS 8000 -SHRA SCT013 OVC022CB 04/02 Q0996 NOSIG
10:30
M
4 °C 9 km 2,000 ft 260° 260° 19 - 27 kt METAR UMGG 190730Z 26010G14MPS 9000 -SHRA SCT013 OVC020CB 04/03 Q0996 NOSIG
10:00
M
4 °C 10 km+ 2,400 ft 260° 260° 19 - 27 kt METAR UMGG 190700Z 26010G14MPS 9999 -SHRA SCT011 OVC024CB 04/03 Q0995 NOSIG
09:30
M
4 °C 7 km 2,900 ft 260° 260° 19 - 27 kt METAR UMGG 190630Z 26010G14MPS 7000 -SHRA SCT011 OVC029CB 04/03 Q0995 NOSIG
09:00
M
4 °C 7 km 1,100 ft 260° 260° 19 - 27 kt METAR UMGG 190600Z 26010G14MPS 7000 -SHRA BKN011 OVC020CB 04/03 Q0994 NOSIG
08:30
M
4 °C 8 km 1,100 ft 260° 260° 17 - 25 kt METAR UMGG 190530Z 26009G13MPS 8000 -SHRA BKN011 OVC028CB 04/02 Q0994 NOSIG
08:00
M
4 °C 10 km+ 1,000 ft 260° 260° 17 - 25 kt METAR UMGG 190500Z 26009G13MPS 9999 -SHRA BKN010 OVC016CB 04/02 Q0993 NOSIG
07:30
I
4 °C 10 km+ 900 ft 260° 260° 17 - 25 kt METAR UMGG 190430Z 26009G13MPS 9999 -SHRA BKN009 OVC015CB 04/03 Q0993 NOSIG
07:00
I
4 °C 10 km+ 900 ft 270° 270° 17 - 23 kt METAR UMGG 190400Z 27009G12MPS 9999 -SHRA BKN009 OVC016CB 04/03 Q0993 NOSIG
06:30
I
5 °C 8 km 900 ft 270° 270° 17 - 23 kt METAR UMGG 190330Z 27009G12MPS 8000 -SHRA BKN009 OVC017CB 05/04 Q0992 NOSIG
06:00
I
5 °C 3.6 km 900 ft 270° 270° 17 - 23 kt METAR UMGG 190300Z 27009G12MPS 3600 -SHRA BKN009 OVC022CB 05/04 Q0992 NOSIG
05:00
I
6 °C 6 km 700 ft 270° 270° 11 - 17 kt METAR UMGG 190200Z 27006G09MPS 6000 -SHRA BKN007 OVC017CB 06/05 Q0992 NOSIG
04:00
I
6 °C 3.4 km 500 ft 270° 270° 9 - 15 kt METAR UMGG 190100Z 27005G08MPS 3400 -SHRA OVC005CB 06/05 Q0992 NOSIG RMK QBB160
03:00
L
6 °C 2.8 km 400 ft 300° 300° 9 - 15 kt METAR UMGG 190000Z 30005G08MPS 2800 -SHRA OVC004CB 06/05 Q0992 TEMPO 2000 SHRA RMK QBB130
02:00
I
6 °C 6 km 500 ft 300° 300° 9 - 15 kt METAR UMGG 182300Z 30005G08MPS 6000 -SHRA OVC005CB 06/05 Q0993 NOSIG RMK QBB160
01:00
L
6 °C 5 km 300 ft 320° 320° 9 - 15 kt METAR UMGG 182200Z 32005G08MPS 5000 -SHRA OVC003CB 06/05 Q0994 NOSIG RMK QBB110
00:00
L
6 °C 4.4 km 400 ft 330° 330° 13 - 19 kt METAR UMGG 182100Z 33007G10MPS 4400 -SHRA OVC004CB 06/05 Q0994 TEMPO 3100 RMK QBB130

April 18, 2024

Time Code Weather Temp. Visibility Ceiling Wind METAR/SPECI
23:00
L
6 °C 3.1 km 400 ft 320° 320° 13 - 19 kt METAR UMGG 182000Z 32007G10MPS 3100 -SHRA BKN004 OVC013CB 06/05 Q0995 TEMPO 2200 RMK QBB130
22:00
M
7 °C 10 km+ 1,900 ft 320° 320° 13 - 19 kt METAR UMGG 181900Z 32007G10MPS 9999 -SHRA SCT010 OVC019CB 07/05 Q0996 NOSIG
21:00
M
7 °C 9 km 1,400 ft 330° 330° 13 - 19 kt METAR UMGG 181800Z 33007G10MPS 9000 -SHRA FEW011 OVC014CB 07/06 Q0997 NOSIG
20:00
I
7 °C 9 km 500 ft 330° 330° 11 - 17 kt METAR UMGG 181700Z 33006G09MPS 9000 -SHRA BKN005 OVC024CB 07/06 Q0998 NOSIG RMK QBB170
19:30
I
7 °C 6 km 500 ft 330° 330° 11 - 17 kt METAR UMGG 181630Z 33006G09MPS 6000 -SHRA BKN005 OVC015CB 07/06 Q0998 NOSIG RMK QBB170
19:00
I
7 °C 6 km 800 ft 330° 330° 11 - 17 kt METAR UMGG 181600Z 33006G09MPS 6000 -SHRA BKN008 OVC017CB 07/06 Q0999 NOSIG
18:30
I
7 °C 7 km 800 ft 350° 350° 11 - 17 kt METAR UMGG 181530Z 35006G09MPS 7000 -SHRA BKN008 OVC026CB 07/06 Q0999 NOSIG
18:00
M
7 °C 5 km 1,400 ft 350° 350° 11 - 17 kt METAR UMGG 181500Z 35006G09MPS 5000 -SHRA OVC014CB 07/06 Q1000 NOSIG
17:30
I
8 °C 6 km 700 ft 350° 350° 11 - 17 kt METAR UMGG 181430Z 35006G09MPS 6000 -SHRA BKN007 OVC018CB 08/07 Q1000 NOSIG
17:00
M
8 °C 9 km 1,400 ft 350° 350° 11 - 17 kt METAR UMGG 181400Z 35006G09MPS 9000 -SHRA OVC014CB 08/07 Q1000 NOSIG
16:30
M
9 °C 9 km 1,400 ft 350° 350° 11 - 17 kt METAR UMGG 181330Z 35006G09MPS 9000 -SHRA OVC014CB 09/08 Q1000 NOSIG
16:00
M
9 °C 9 km 1,600 ft 350° 350° 11 - 17 kt METAR UMGG 181300Z 35006G09MPS 9000 -SHRA OVC016CB 09/08 Q1001 NOSIG
15:30
M
9 °C 8 km 1,700 ft 350° 350° 11 kt METAR UMGG 181230Z 35006MPS 8000 -SHRA SCT012 OVC017CB 09/06 Q1001 NOSIG
15:00
M
9 °C 7 km 2,900 ft 010° 010° 11 kt METAR UMGG 181200Z 01006MPS 7000 -SHRA OVC029CB 09/06 Q1001 NOSIG
14:30
M
9 °C 7 km 3,000 ft 010° 010° 7 kt METAR UMGG 181130Z 01004MPS 7000 -SHRA OVC030CB 09/06 Q1002 NOSIG
14:00
V
9 °C 8 km 3,100 ft 010° 010° 9 kt METAR UMGG 181100Z 01005MPS 8000 -SHRA OVC031CB 09/06 Q1002 NOSIG
13:30
V
9 °C 8 km 3,500 ft 010° 010° 9 kt METAR UMGG 181030Z 01005MPS 8000 -SHRA OVC035CB 09/04 Q1002 NOSIG
13:00
V
9 °C 8 km 3,600 ft 010° 010° 7 kt METAR UMGG 181000Z 01004MPS 8000 -SHRA OVC036CB 09/04 Q1002 NOSIG
12:30
V
9 °C 10 km+ 4,200 ft 350° 350° 9 kt METAR UMGG 180930Z 35005MPS 9999 -SHRA OVC042CB 09/03 Q1002 NOSIG
12:00
V
9 °C 10 km+ 4,100 ft 350° 350° 9 kt METAR UMGG 180900Z 35005MPS 9999 -SHRA OVC041CB 09/03 Q1002 NOSIG
11:30
V
9 °C 10 km+ 4,200 ft 010° 010° 11 kt METAR UMGG 180830Z 01006MPS 9999 -SHRA OVC042CB 09/03 Q1002 NOSIG
11:00
V
9 °C 10 km+ 4,600 ft 350° 350° 9 kt METAR UMGG 180800Z 35005MPS 9999 -SHRA OVC046CB 09/03 Q1003 NOSIG
10:30
V
8 °C 10 km+ - 350° 350° 9 kt METAR UMGG 180730Z 35005MPS CAVOK 08/04 Q1003 NOSIG
10:00
V
8 °C 10 km+ - 010° 010° 9 kt METAR UMGG 180700Z 01005MPS CAVOK 08/04 Q1003 NOSIG
09:30
V
8 °C 10 km+ - 010° 010° 9 kt METAR UMGG 180630Z 01005MPS CAVOK 08/03 Q1003 NOSIG
09:00
V
8 °C 10 km+ - 020° 020° 9 kt METAR UMGG 180600Z 02005MPS CAVOK 08/03 Q1003 NOSIG
08:30
V
7 °C 10 km+ - 350° 350° 7 kt METAR UMGG 180530Z 35004MPS CAVOK 07/03 Q1003 NOSIG
08:00
V
7 °C 10 km+ - 350° 350° 9 kt METAR UMGG 180500Z 35005MPS CAVOK 07/03 Q1003 NOSIG
07:30
V
6 °C 10 km+ - 350° 350° 7 kt METAR UMGG 180430Z 35004MPS CAVOK 06/03 Q1003 NOSIG
07:00
V
6 °C 10 km+ - 010° 010° 7 kt METAR UMGG 180400Z 01004MPS CAVOK 06/03 Q1003 NOSIG
06:30
V
6 °C 10 km+ - 010° 010° 5 kt METAR UMGG 180330Z 01003MPS CAVOK 06/04 Q1003 NOSIG
06:00
V
6 °C 10 km+ - 350° 350° 5 kt METAR UMGG 180300Z 35003MPS CAVOK 06/04 Q1003 NOSIG
05:00
V
6 °C 10 km+ - 350° 350° 3 kt METAR UMGG 180200Z 35002MPS CAVOK 06/04 Q1003 NOSIG
04:00
V
6 °C 10 km+ - 350° 350° 5 kt METAR UMGG 180100Z 35003MPS CAVOK 06/04 Q1003 NOSIG
03:00
V
6 °C 10 km+ - 350° 350° 5 kt METAR UMGG 180000Z 35003MPS CAVOK 06/04 Q1003 NOSIG
02:00
V
7 °C 10 km+ - Var Var 1 kt METAR UMGG 172300Z VRB01MPS CAVOK 07/04 Q1003 NOSIG
01:00
V
7 °C 10 km+ - 020° 020° 3 kt METAR UMGG 172200Z 02002MPS CAVOK 07/03 Q1002 NOSIG
00:00
V
8 °C 10 km+ - 020° 020° 5 kt METAR UMGG 172100Z 02003MPS CAVOK 08/03 Q1003 NOSIG

April 17, 2024

Time Code Weather Temp. Visibility Ceiling Wind METAR/SPECI
23:00
V
8 °C 10 km+ - 350° 350° 9 kt METAR UMGG 172000Z 35005MPS CAVOK 08/02 Q1003 NOSIG
22:00
V
9 °C 10 km+ - 340° 340° 9 kt METAR UMGG 171900Z 34005MPS CAVOK 09/02 Q1003 NOSIG
21:00
V
10 °C 10 km+ - 330° 330° 11 kt METAR UMGG 171800Z 33006MPS CAVOK 10/03 Q1003 NOSIG
20:00
V
10 °C 10 km+ - 330° 330° 7 kt METAR UMGG 171700Z 33004MPS CAVOK 10/03 Q1002 NOSIG
19:30
V
11 °C 10 km+ - 330° 330° 7 kt METAR UMGG 171630Z 33004MPS CAVOK 11/03 Q1002 NOSIG
19:00
V
11 °C 10 km+ 10,000 ft 310° 310° 7 kt METAR UMGG 171600Z 31004MPS 9999 SCT049 BKN100 11/03 Q1002 NOSIG
18:30
V
12 °C 10 km+ 10,000 ft 330° 330° 9 kt METAR UMGG 171530Z 33005MPS 9999 SCT046 BKN100 12/03 Q1002 NOSIG
18:00
V
12 °C 10 km+ 4,900 ft 300° 300° 5 kt METAR UMGG 171500Z 30003MPS 9999 BKN049CB OVC100 12/03 Q1002 NOSIG
17:30
V
12 °C 10 km+ 4,900 ft 310° 310° 9 kt METAR UMGG 171430Z 31005MPS 9999 BKN049CB OVC100 12/01 Q1001 NOSIG
17:00
V
12 °C 10 km+ 4,700 ft 280° 280° 9 kt METAR UMGG 171400Z 28005MPS 9999 BKN047CB OVC100 12/01 Q1001 NOSIG
16:30
V
11 °C 10 km+ 10,000 ft 270° 270° 11 kt METAR UMGG 171330Z 27006MPS 9999 SCT047CB OVC100 11/02 Q1001 NOSIG
16:00
V
11 °C 10 km+ 10,000 ft 290° 290° 11 kt METAR UMGG 171300Z 29006MPS 9999 SCT042CB OVC100 11/02 Q1001 NOSIG
15:30
V
11 °C 10 km+ 10,000 ft 270° 270° 11 kt METAR UMGG 171230Z 27006MPS 9999 SCT040CB OVC100 11/02 Q1001 NOSIG
15:00
V
11 °C 10 km+ 10,000 ft 270° 270° 11 kt METAR UMGG 171200Z 27006MPS 9999 SCT040CB OVC100 11/02 Q1001 NOSIG
14:30
V
11 °C 10 km+ 10,000 ft 280° 280° 11 kt METAR UMGG 171130Z 28006MPS 9999 SCT040CB OVC100 11/03 Q1001 NOSIG
14:00
V
11 °C 10 km+ 10,000 ft 280° 280° 11 kt METAR UMGG 171100Z 28006MPS 9999 SCT040 OVC100 11/03 Q1001 NOSIG
13:30
V
11 °C 10 km+ 10,000 ft 280° 280° 11 kt METAR UMGG 171030Z 28006MPS 9999 SCT037 OVC100 11/03 Q1001 NOSIG
13:00
V
11 °C 10 km+ 10,000 ft 250° 250° 9 kt METAR UMGG 171000Z 25005MPS 9999 SCT033 OVC100 11/03 Q1001 NOSIG
12:30
V
10 °C 10 km+ 10,000 ft 260° 260° 7 kt METAR UMGG 170930Z 26004MPS 9999 SCT031 OVC100 10/03 Q1001 NOSIG
12:00
V
10 °C 10 km+ 10,000 ft 280° 280° 7 kt METAR UMGG 170900Z 28004MPS 9999 SCT029 OVC100 10/03 Q1001 NOSIG
11:30
V
10 °C 10 km+ 10,000 ft 260° 260° 7 kt METAR UMGG 170830Z 26004MPS 9999 SCT024 OVC100 10/04 Q1001 NOSIG
11:00
V
10 °C 10 km+ 10,000 ft 290° 290° 7 kt METAR UMGG 170800Z 29004MPS 9999 FEW024 BKN100 10/04 Q1000 NOSIG
10:30
V
9 °C 10 km+ - 290° 290° 9 kt METAR UMGG 170730Z 29005MPS CAVOK 09/03 Q1000 NOSIG
10:00
V
9 °C 10 km+ - 320° 320° 9 kt METAR UMGG 170700Z 32005MPS CAVOK 09/03 Q1000 NOSIG
09:30
V
8 °C 10 km+ - 300° 300° 9 kt METAR UMGG 170630Z 30005MPS CAVOK 08/05 Q1000 NOSIG
09:00
V
8 °C 10 km+ - 290° 290° 7 kt METAR UMGG 170600Z 29004MPS CAVOK 08/05 Q1000 NOSIG
Report a change